sensor_id;sensor_type;location;lat;lon;timestamp;P1;durP1;ratioP1;P2;durP2;ratioP2
30998;SDS011;20549;50.042;8.968;2024-03-02T00:00:16;10.73;;;7.10;;
30998;SDS011;20549;50.042;8.968;2024-03-02T00:02:44;8.10;;;7.27;;
30998;SDS011;20549;50.042;8.968;2024-03-02T00:05:13;8.00;;;7.20;;
30998;SDS011;20549;50.042;8.968;2024-03-02T00:07:41;8.23;;;7.40;;
30998;SDS011;20549;50.042;8.968;2024-03-02T00:10:08;8.30;;;7.50;;
30998;SDS011;20549;50.042;8.968;2024-03-02T00:12:35;8.50;;;7.57;;
30998;SDS011;20549;50.042;8.968;2024-03-02T00:15:01;9.60;;;6.83;;
30998;SDS011;20549;50.042;8.968;2024-03-02T00:17:28;7.87;;;7.07;;
30998;SDS011;20549;50.042;8.968;2024-03-02T00:19:54;8.23;;;7.43;;
30998;SDS011;20549;50.042;8.968;2024-03-02T00:22:21;7.87;;;7.17;;
30998;SDS011;20549;50.042;8.968;2024-03-02T00:24:47;7.70;;;6.90;;
30998;SDS011;20549;50.042;8.968;2024-03-02T00:27:14;9.63;;;7.17;;
30998;SDS011;20549;50.042;8.968;2024-03-02T00:29:41;8.33;;;7.47;;
30998;SDS011;20549;50.042;8.968;2024-03-02T00:32:10;9.83;;;7.87;;
30998;SDS011;20549;50.042;8.968;2024-03-02T00:34:40;8.20;;;7.27;;
30998;SDS011;20549;50.042;8.968;2024-03-02T00:37:06;8.63;;;7.13;;
30998;SDS011;20549;50.042;8.968;2024-03-02T00:39:33;9.37;;;8.13;;
30998;SDS011;20549;50.042;8.968;2024-03-02T00:41:59;8.03;;;7.10;;
30998;SDS011;20549;50.042;8.968;2024-03-02T00:44:26;8.80;;;7.50;;
30998;SDS011;20549;50.042;8.968;2024-03-02T00:46:52;7.60;;;6.87;;
30998;SDS011;20549;50.042;8.968;2024-03-02T00:49:22;8.33;;;7.50;;
30998;SDS011;20549;50.042;8.968;2024-03-02T00:51:52;10.90;;;7.10;;
30998;SDS011;20549;50.042;8.968;2024-03-02T00:54:15;8.10;;;7.30;;
30998;SDS011;20549;50.042;8.968;2024-03-02T00:56:41;9.73;;;8.53;;
30998;SDS011;20549;50.042;8.968;2024-03-02T00:59:09;8.20;;;7.40;;
30998;SDS011;20549;50.042;8.968;2024-03-02T01:01:35;8.47;;;7.43;;
30998;SDS011;20549;50.042;8.968;2024-03-02T01:04:01;11.03;;;8.03;;
30998;SDS011;20549;50.042;8.968;2024-03-02T01:06:28;8.90;;;8.00;;
30998;SDS011;20549;50.042;8.968;2024-03-02T01:08:54;10.93;;;8.57;;
30998;SDS011;20549;50.042;8.968;2024-03-02T01:11:21;9.03;;;8.13;;
30998;SDS011;20549;50.042;8.968;2024-03-02T01:13:48;9.87;;;8.87;;
30998;SDS011;20549;50.042;8.968;2024-03-02T01:16:14;9.20;;;8.27;;
30998;SDS011;20549;50.042;8.968;2024-03-02T01:18:41;9.40;;;8.50;;
30998;SDS011;20549;50.042;8.968;2024-03-02T01:21:07;9.90;;;8.87;;
30998;SDS011;20549;50.042;8.968;2024-03-02T01:23:34;10.67;;;8.90;;
30998;SDS011;20549;50.042;8.968;2024-03-02T01:26:00;10.10;;;7.70;;
30998;SDS011;20549;50.042;8.968;2024-03-02T01:28:27;9.40;;;8.30;;
30998;SDS011;20549;50.042;8.968;2024-03-02T01:30:54;11.87;;;8.23;;
30998;SDS011;20549;50.042;8.968;2024-03-02T01:33:20;9.00;;;7.93;;
30998;SDS011;20549;50.042;8.968;2024-03-02T01:35:47;9.67;;;8.33;;
30998;SDS011;20549;50.042;8.968;2024-03-02T01:38:13;8.80;;;7.90;;
30998;SDS011;20549;50.042;8.968;2024-03-02T01:40:40;8.77;;;7.87;;
30998;SDS011;20549;50.042;8.968;2024-03-02T01:43:07;9.33;;;8.37;;
30998;SDS011;20549;50.042;8.968;2024-03-02T01:45:33;9.27;;;8.03;;
30998;SDS011;20549;50.042;8.968;2024-03-02T01:48:00;9.97;;;8.27;;
30998;SDS011;20549;50.042;8.968;2024-03-02T01:50:31;8.97;;;8.07;;
30998;SDS011;20549;50.042;8.968;2024-03-02T01:52:56;11.00;;;8.07;;
30998;SDS011;20549;50.042;8.968;2024-03-02T01:55:22;9.63;;;8.63;;
30998;SDS011;20549;50.042;8.968;2024-03-02T01:57:49;9.93;;;8.93;;
30998;SDS011;20549;50.042;8.968;2024-03-02T02:00:18;9.50;;;8.43;;
30998;SDS011;20549;50.042;8.968;2024-03-02T02:02:45;10.33;;;8.93;;
30998;SDS011;20549;50.042;8.968;2024-03-02T02:05:11;11.30;;;9.13;;
30998;SDS011;20549;50.042;8.968;2024-03-02T02:07:38;10.83;;;9.07;;
30998;SDS011;20549;50.042;8.968;2024-03-02T02:10:04;10.00;;;9.00;;
30998;SDS011;20549;50.042;8.968;2024-03-02T02:12:31;11.80;;;10.17;;
30998;SDS011;20549;50.042;8.968;2024-03-02T02:14:58;10.47;;;9.37;;
30998;SDS011;20549;50.042;8.968;2024-03-02T02:17:24;10.03;;;8.87;;
30998;SDS011;20549;50.042;8.968;2024-03-02T02:19:51;11.23;;;9.33;;
30998;SDS011;20549;50.042;8.968;2024-03-02T02:22:17;12.07;;;10.13;;
30998;SDS011;20549;50.042;8.968;2024-03-02T02:24:44;12.00;;;9.80;;
30998;SDS011;20549;50.042;8.968;2024-03-02T02:27:10;10.83;;;9.43;;
30998;SDS011;20549;50.042;8.968;2024-03-02T02:29:37;15.77;;;9.93;;
30998;SDS011;20549;50.042;8.968;2024-03-02T02:32:04;12.47;;;10.40;;
30998;SDS011;20549;50.042;8.968;2024-03-02T02:34:30;11.43;;;9.97;;
30998;SDS011;20549;50.042;8.968;2024-03-02T02:36:57;12.10;;;10.80;;
30998;SDS011;20549;50.042;8.968;2024-03-02T02:39:23;12.47;;;9.93;;
30998;SDS011;20549;50.042;8.968;2024-03-02T02:41:50;14.27;;;10.53;;
30998;SDS011;20549;50.042;8.968;2024-03-02T02:44:17;14.07;;;10.70;;
30998;SDS011;20549;50.042;8.968;2024-03-02T02:46:43;15.30;;;11.43;;
30998;SDS011;20549;50.042;8.968;2024-03-02T02:49:10;11.77;;;10.57;;
30998;SDS011;20549;50.042;8.968;2024-03-02T02:51:36;12.87;;;10.57;;
30998;SDS011;20549;50.042;8.968;2024-03-02T02:54:03;11.87;;;10.27;;
30998;SDS011;20549;50.042;8.968;2024-03-02T02:56:30;13.17;;;11.27;;
30998;SDS011;20549;50.042;8.968;2024-03-02T02:58:56;11.23;;;9.67;;
30998;SDS011;20549;50.042;8.968;2024-03-02T03:01:23;13.57;;;11.10;;
30998;SDS011;20549;50.042;8.968;2024-03-02T03:03:49;11.67;;;10.47;;
30998;SDS011;20549;50.042;8.968;2024-03-02T03:06:16;12.10;;;10.43;;
30998;SDS011;20549;50.042;8.968;2024-03-02T03:08:42;12.67;;;10.13;;
30998;SDS011;20549;50.042;8.968;2024-03-02T03:11:09;12.57;;;11.00;;
30998;SDS011;20549;50.042;8.968;2024-03-02T03:13:36;12.10;;;10.70;;
30998;SDS011;20549;50.042;8.968;2024-03-02T03:16:02;12.73;;;9.93;;
30998;SDS011;20549;50.042;8.968;2024-03-02T03:18:29;13.80;;;10.80;;
30998;SDS011;20549;50.042;8.968;2024-03-02T03:20:55;10.73;;;9.50;;
30998;SDS011;20549;50.042;8.968;2024-03-02T03:23:22;11.90;;;10.70;;
30998;SDS011;20549;50.042;8.968;2024-03-02T03:25:49;14.60;;;11.20;;
30998;SDS011;20549;50.042;8.968;2024-03-02T03:28:15;11.73;;;10.53;;
30998;SDS011;20549;50.042;8.968;2024-03-02T03:30:42;14.73;;;10.67;;
30998;SDS011;20549;50.042;8.968;2024-03-02T03:33:08;12.40;;;9.90;;
30998;SDS011;20549;50.042;8.968;2024-03-02T03:35:36;12.73;;;10.80;;
30998;SDS011;20549;50.042;8.968;2024-03-02T03:38:02;13.27;;;11.00;;
30998;SDS011;20549;50.042;8.968;2024-03-02T03:40:28;13.30;;;11.10;;
30998;SDS011;20549;50.042;8.968;2024-03-02T03:42:55;13.47;;;9.83;;
30998;SDS011;20549;50.042;8.968;2024-03-02T03:45:21;12.10;;;10.87;;
30998;SDS011;20549;50.042;8.968;2024-03-02T03:47:48;12.03;;;10.67;;
30998;SDS011;20549;50.042;8.968;2024-03-02T03:50:14;12.57;;;11.00;;
30998;SDS011;20549;50.042;8.968;2024-03-02T03:52:41;10.67;;;9.53;;
30998;SDS011;20549;50.042;8.968;2024-03-02T03:55:08;13.17;;;10.90;;
30998;SDS011;20549;50.042;8.968;2024-03-02T03:57:34;13.33;;;10.97;;
30998;SDS011;20549;50.042;8.968;2024-03-02T04:00:01;11.37;;;9.97;;
30998;SDS011;20549;50.042;8.968;2024-03-02T04:02:27;13.07;;;10.87;;
30998;SDS011;20549;50.042;8.968;2024-03-02T04:04:54;13.97;;;11.30;;
30998;SDS011;20549;50.042;8.968;2024-03-02T04:07:21;12.30;;;10.50;;
30998;SDS011;20549;50.042;8.968;2024-03-02T04:09:47;15.63;;;11.33;;
30998;SDS011;20549;50.042;8.968;2024-03-02T04:12:14;13.60;;;11.10;;
30998;SDS011;20549;50.042;8.968;2024-03-02T04:14:40;14.17;;;11.03;;
30998;SDS011;20549;50.042;8.968;2024-03-02T04:17:07;12.83;;;10.17;;
30998;SDS011;20549;50.042;8.968;2024-03-02T04:19:34;11.23;;;9.97;;
30998;SDS011;20549;50.042;8.968;2024-03-02T04:22:00;12.47;;;10.33;;
30998;SDS011;20549;50.042;8.968;2024-03-02T04:24:27;13.27;;;11.00;;
30998;SDS011;20549;50.042;8.968;2024-03-02T04:26:53;13.47;;;11.07;;
30998;SDS011;20549;50.042;8.968;2024-03-02T04:29:20;11.80;;;9.87;;
30998;SDS011;20549;50.042;8.968;2024-03-02T04:31:46;14.87;;;10.60;;
30998;SDS011;20549;50.042;8.968;2024-03-02T04:34:13;15.70;;;10.90;;
30998;SDS011;20549;50.042;8.968;2024-03-02T04:36:40;12.70;;;10.10;;
30998;SDS011;20549;50.042;8.968;2024-03-02T04:39:06;13.37;;;11.00;;
30998;SDS011;20549;50.042;8.968;2024-03-02T04:41:33;12.80;;;10.73;;
30998;SDS011;20549;50.042;8.968;2024-03-02T04:43:59;13.37;;;10.50;;
30998;SDS011;20549;50.042;8.968;2024-03-02T04:46:26;12.50;;;10.27;;
30998;SDS011;20549;50.042;8.968;2024-03-02T04:48:53;11.93;;;10.40;;
30998;SDS011;20549;50.042;8.968;2024-03-02T04:51:19;13.30;;;11.43;;
30998;SDS011;20549;50.042;8.968;2024-03-02T04:53:46;11.63;;;10.23;;
30998;SDS011;20549;50.042;8.968;2024-03-02T04:56:12;11.40;;;9.70;;
30998;SDS011;20549;50.042;8.968;2024-03-02T04:58:48;13.23;;;10.27;;
30998;SDS011;20549;50.042;8.968;2024-03-02T05:01:15;12.77;;;10.53;;
30998;SDS011;20549;50.042;8.968;2024-03-02T05:03:41;13.37;;;10.50;;
30998;SDS011;20549;50.042;8.968;2024-03-02T05:06:08;14.13;;;11.60;;
30998;SDS011;20549;50.042;8.968;2024-03-02T05:08:34;13.13;;;10.47;;
30998;SDS011;20549;50.042;8.968;2024-03-02T05:11:01;14.33;;;11.00;;
30998;SDS011;20549;50.042;8.968;2024-03-02T05:13:28;12.03;;;10.73;;
30998;SDS011;20549;50.042;8.968;2024-03-02T05:15:54;13.17;;;10.67;;
30998;SDS011;20549;50.042;8.968;2024-03-02T05:18:21;12.77;;;10.10;;
30998;SDS011;20549;50.042;8.968;2024-03-02T05:20:47;11.90;;;10.67;;
30998;SDS011;20549;50.042;8.968;2024-03-02T05:23:14;11.80;;;10.10;;
30998;SDS011;20549;50.042;8.968;2024-03-02T05:25:41;12.13;;;10.27;;
30998;SDS011;20549;50.042;8.968;2024-03-02T05:28:07;13.13;;;10.40;;
30998;SDS011;20549;50.042;8.968;2024-03-02T05:30:34;11.93;;;10.60;;
30998;SDS011;20549;50.042;8.968;2024-03-02T05:33:00;11.57;;;10.30;;
30998;SDS011;20549;50.042;8.968;2024-03-02T05:35:27;12.17;;;10.53;;
30998;SDS011;20549;50.042;8.968;2024-03-02T05:37:53;14.03;;;11.47;;
30998;SDS011;20549;50.042;8.968;2024-03-02T05:40:20;13.23;;;11.17;;
30998;SDS011;20549;50.042;8.968;2024-03-02T05:42:47;12.30;;;10.30;;
30998;SDS011;20549;50.042;8.968;2024-03-02T05:45:13;12.37;;;10.70;;
30998;SDS011;20549;50.042;8.968;2024-03-02T05:47:40;12.53;;;10.80;;
30998;SDS011;20549;50.042;8.968;2024-03-02T05:50:06;12.07;;;10.63;;
30998;SDS011;20549;50.042;8.968;2024-03-02T05:52:33;12.57;;;11.20;;
30998;SDS011;20549;50.042;8.968;2024-03-02T05:55:00;11.77;;;10.53;;
30998;SDS011;20549;50.042;8.968;2024-03-02T05:57:26;14.07;;;10.53;;
30998;SDS011;20549;50.042;8.968;2024-03-02T06:00:11;12.30;;;10.87;;
30998;SDS011;20549;50.042;8.968;2024-03-02T06:02:40;11.63;;;10.10;;
30998;SDS011;20549;50.042;8.968;2024-03-02T06:05:07;15.37;;;10.50;;
30998;SDS011;20549;50.042;8.968;2024-03-02T06:07:33;12.27;;;10.40;;
30998;SDS011;20549;50.042;8.968;2024-03-02T06:10:00;11.60;;;10.17;;
30998;SDS011;20549;50.042;8.968;2024-03-02T06:12:27;12.47;;;10.70;;
30998;SDS011;20549;50.042;8.968;2024-03-02T06:14:53;13.20;;;10.83;;
30998;SDS011;20549;50.042;8.968;2024-03-02T06:17:20;13.73;;;10.67;;
30998;SDS011;20549;50.042;8.968;2024-03-02T06:19:46;12.40;;;10.47;;
30998;SDS011;20549;50.042;8.968;2024-03-02T06:22:13;12.17;;;10.40;;
30998;SDS011;20549;50.042;8.968;2024-03-02T06:24:39;12.17;;;10.60;;
30998;SDS011;20549;50.042;8.968;2024-03-02T06:27:06;11.10;;;9.97;;
30998;SDS011;20549;50.042;8.968;2024-03-02T06:29:33;11.77;;;10.30;;
30998;SDS011;20549;50.042;8.968;2024-03-02T06:31:59;11.33;;;10.13;;
30998;SDS011;20549;50.042;8.968;2024-03-02T06:34:26;12.07;;;9.87;;
30998;SDS011;20549;50.042;8.968;2024-03-02T06:36:52;10.90;;;9.50;;
30998;SDS011;20549;50.042;8.968;2024-03-02T06:39:19;11.73;;;9.77;;
30998;SDS011;20549;50.042;8.968;2024-03-02T06:41:46;10.80;;;9.37;;
30998;SDS011;20549;50.042;8.968;2024-03-02T06:44:12;13.03;;;10.07;;
30998;SDS011;20549;50.042;8.968;2024-03-02T06:46:39;13.83;;;9.93;;
30998;SDS011;20549;50.042;8.968;2024-03-02T06:49:05;11.10;;;9.90;;
30998;SDS011;20549;50.042;8.968;2024-03-02T06:51:33;11.37;;;10.20;;
30998;SDS011;20549;50.042;8.968;2024-03-02T06:53:58;12.47;;;10.53;;
30998;SDS011;20549;50.042;8.968;2024-03-02T06:56:25;10.63;;;9.53;;
30998;SDS011;20549;50.042;8.968;2024-03-02T06:58:52;11.50;;;10.23;;
30998;SDS011;20549;50.042;8.968;2024-03-02T07:01:18;10.83;;;9.73;;
30998;SDS011;20549;50.042;8.968;2024-03-02T07:03:45;11.83;;;10.00;;
30998;SDS011;20549;50.042;8.968;2024-03-02T07:06:11;11.00;;;9.30;;
30998;SDS011;20549;50.042;8.968;2024-03-02T07:08:38;10.80;;;9.60;;
30998;SDS011;20549;50.042;8.968;2024-03-02T07:11:05;10.67;;;9.57;;
30998;SDS011;20549;50.042;8.968;2024-03-02T07:13:31;11.10;;;9.50;;
30998;SDS011;20549;50.042;8.968;2024-03-02T07:15:58;11.60;;;10.07;;
30998;SDS011;20549;50.042;8.968;2024-03-02T07:18:36;10.77;;;9.10;;
30998;SDS011;20549;50.042;8.968;2024-03-02T07:21:03;11.40;;;10.20;;
30998;SDS011;20549;50.042;8.968;2024-03-02T07:23:29;10.87;;;9.63;;
30998;SDS011;20549;50.042;8.968;2024-03-02T07:25:56;11.43;;;10.23;;
30998;SDS011;20549;50.042;8.968;2024-03-02T07:28:23;11.60;;;9.63;;
30998;SDS011;20549;50.042;8.968;2024-03-02T07:31:01;11.17;;;9.97;;
30998;SDS011;20549;50.042;8.968;2024-03-02T07:33:27;12.57;;;10.27;;
30998;SDS011;20549;50.042;8.968;2024-03-02T07:35:54;10.37;;;8.97;;
30998;SDS011;20549;50.042;8.968;2024-03-02T07:38:23;10.77;;;9.10;;
30998;SDS011;20549;50.042;8.968;2024-03-02T07:40:50;12.77;;;10.03;;
30998;SDS011;20549;50.042;8.968;2024-03-02T07:43:17;9.70;;;8.70;;
30998;SDS011;20549;50.042;8.968;2024-03-02T07:45:43;10.00;;;9.00;;
30998;SDS011;20549;50.042;8.968;2024-03-02T07:48:09;10.07;;;8.97;;
30998;SDS011;20549;50.042;8.968;2024-03-02T07:50:36;9.93;;;8.90;;
30998;SDS011;20549;50.042;8.968;2024-03-02T07:53:03;13.00;;;9.00;;
30998;SDS011;20549;50.042;8.968;2024-03-02T07:55:29;12.60;;;9.03;;
30998;SDS011;20549;50.042;8.968;2024-03-02T07:58:00;10.03;;;8.97;;
30998;SDS011;20549;50.042;8.968;2024-03-02T08:00:25;10.97;;;8.93;;
30998;SDS011;20549;50.042;8.968;2024-03-02T08:02:52;10.23;;;9.07;;
30998;SDS011;20549;50.042;8.968;2024-03-02T08:05:18;11.73;;;9.80;;
30998;SDS011;20549;50.042;8.968;2024-03-02T08:07:45;9.80;;;8.83;;
30998;SDS011;20549;50.042;8.968;2024-03-02T08:10:12;9.55;;;8.65;;
30998;SDS011;20549;50.042;8.968;2024-03-02T08:12:38;10.13;;;9.07;;
30998;SDS011;20549;50.042;8.968;2024-03-02T08:15:06;13.32;;;8.98;;
30998;SDS011;20549;50.042;8.968;2024-03-02T08:17:32;9.15;;;8.25;;
30998;SDS011;20549;50.042;8.968;2024-03-02T08:19:58;10.32;;;7.97;;
30998;SDS011;20549;50.042;8.968;2024-03-02T08:22:25;10.15;;;8.98;;
30998;SDS011;20549;50.042;8.968;2024-03-02T08:24:51;9.45;;;8.40;;
30998;SDS011;20549;50.042;8.968;2024-03-02T08:27:18;8.73;;;7.92;;
30998;SDS011;20549;50.042;8.968;2024-03-02T08:29:44;9.20;;;8.28;;
30998;SDS011;20549;50.042;8.968;2024-03-02T08:32:11;8.93;;;8.03;;
30998;SDS011;20549;50.042;8.968;2024-03-02T08:34:38;8.28;;;7.40;;
30998;SDS011;20549;50.042;8.968;2024-03-02T08:37:04;7.80;;;7.10;;
30998;SDS011;20549;50.042;8.968;2024-03-02T08:39:31;8.63;;;7.83;;
30998;SDS011;20549;50.042;8.968;2024-03-02T08:41:57;8.75;;;7.90;;
30998;SDS011;20549;50.042;8.968;2024-03-02T08:44:24;8.85;;;7.33;;
30998;SDS011;20549;50.042;8.968;2024-03-02T08:46:51;8.03;;;7.22;;
30998;SDS011;20549;50.042;8.968;2024-03-02T08:49:17;7.37;;;6.67;;
30998;SDS011;20549;50.042;8.968;2024-03-02T08:51:44;7.37;;;6.70;;
30998;SDS011;20549;50.042;8.968;2024-03-02T08:54:10;7.33;;;6.50;;
30998;SDS011;20549;50.042;8.968;2024-03-02T08:56:37;8.48;;;6.90;;
30998;SDS011;20549;50.042;8.968;2024-03-02T08:59:04;7.55;;;6.85;;
30998;SDS011;20549;50.042;8.968;2024-03-02T09:01:30;7.78;;;7.05;;
30998;SDS011;20549;50.042;8.968;2024-03-02T09:03:57;7.33;;;6.67;;
30998;SDS011;20549;50.042;8.968;2024-03-02T09:06:23;8.23;;;7.42;;
30998;SDS011;20549;50.042;8.968;2024-03-02T09:08:50;8.53;;;7.72;;
30998;SDS011;20549;50.042;8.968;2024-03-02T09:11:16;8.30;;;7.50;;
30998;SDS011;20549;50.042;8.968;2024-03-02T09:13:43;8.65;;;7.75;;
30998;SDS011;20549;50.042;8.968;2024-03-02T09:16:10;8.28;;;7.53;;
30998;SDS011;20549;50.042;8.968;2024-03-02T09:18:36;7.97;;;7.28;;
30998;SDS011;20549;50.042;8.968;2024-03-02T09:21:03;8.38;;;7.58;;
30998;SDS011;20549;50.042;8.968;2024-03-02T09:23:29;8.35;;;7.55;;
30998;SDS011;20549;50.042;8.968;2024-03-02T09:25:56;8.48;;;7.67;;
30998;SDS011;20549;50.042;8.968;2024-03-02T09:28:23;8.65;;;7.17;;
30998;SDS011;20549;50.042;8.968;2024-03-02T09:30:49;8.35;;;7.35;;
30998;SDS011;20549;50.042;8.968;2024-03-02T09:33:16;6.80;;;6.17;;
30998;SDS011;20549;50.042;8.968;2024-03-02T09:35:42;6.83;;;6.22;;
30998;SDS011;20549;50.042;8.968;2024-03-02T09:38:09;7.05;;;6.35;;
30998;SDS011;20549;50.042;8.968;2024-03-02T09:40:36;6.53;;;5.92;;
30998;SDS011;20549;50.042;8.968;2024-03-02T09:43:02;7.22;;;6.55;;
30998;SDS011;20549;50.042;8.968;2024-03-02T09:45:29;7.20;;;6.50;;
30998;SDS011;20549;50.042;8.968;2024-03-02T09:47:55;6.00;;;5.50;;
30998;SDS011;20549;50.042;8.968;2024-03-02T09:50:22;7.05;;;6.35;;
30998;SDS011;20549;50.042;8.968;2024-03-02T09:52:49;6.30;;;5.67;;
30998;SDS011;20549;50.042;8.968;2024-03-02T09:55:15;9.25;;;6.78;;
30998;SDS011;20549;50.042;8.968;2024-03-02T09:57:42;6.47;;;5.87;;
30998;SDS011;20549;50.042;8.968;2024-03-02T10:00:08;6.80;;;6.10;;
30998;SDS011;20549;50.042;8.968;2024-03-02T10:02:35;6.67;;;6.00;;
30998;SDS011;20549;50.042;8.968;2024-03-02T10:05:01;6.75;;;6.15;;
30998;SDS011;20549;50.042;8.968;2024-03-02T10:07:28;9.25;;;6.75;;
30998;SDS011;20549;50.042;8.968;2024-03-02T10:09:55;7.03;;;6.33;;
30998;SDS011;20549;50.042;8.968;2024-03-02T10:12:21;6.40;;;5.80;;
30998;SDS011;20549;50.042;8.968;2024-03-02T10:14:48;8.33;;;6.05;;
30998;SDS011;20549;50.042;8.968;2024-03-02T10:17:16;6.33;;;5.72;;
30998;SDS011;20549;50.042;8.968;2024-03-02T10:19:41;6.55;;;5.85;;
30998;SDS011;20549;50.042;8.968;2024-03-02T10:22:08;7.15;;;5.87;;
30998;SDS011;20549;50.042;8.968;2024-03-02T10:24:37;6.65;;;6.05;;
30998;SDS011;20549;50.042;8.968;2024-03-02T10:27:16;6.25;;;5.65;;
30998;SDS011;20549;50.042;8.968;2024-03-02T10:29:42;6.45;;;5.78;;
30998;SDS011;20549;50.042;8.968;2024-03-02T10:32:09;7.10;;;6.40;;
30998;SDS011;20549;50.042;8.968;2024-03-02T10:34:35;6.08;;;5.47;;
30998;SDS011;20549;50.042;8.968;2024-03-02T10:37:01;6.30;;;5.70;;
30998;SDS011;20549;50.042;8.968;2024-03-02T10:39:28;6.50;;;5.47;;
30998;SDS011;20549;50.042;8.968;2024-03-02T10:41:55;7.20;;;5.72;;
30998;SDS011;20549;50.042;8.968;2024-03-02T10:44:21;6.42;;;5.72;;
30998;SDS011;20549;50.042;8.968;2024-03-02T10:46:48;5.60;;;5.00;;
30998;SDS011;20549;50.042;8.968;2024-03-02T10:49:14;5.25;;;4.75;;
30998;SDS011;20549;50.042;8.968;2024-03-02T10:51:41;7.50;;;4.80;;
30998;SDS011;20549;50.042;8.968;2024-03-02T10:54:08;4.92;;;4.42;;
30998;SDS011;20549;50.042;8.968;2024-03-02T10:56:37;5.53;;;5.03;;
30998;SDS011;20549;50.042;8.968;2024-03-02T10:59:23;5.58;;;4.60;;
30998;SDS011;20549;50.042;8.968;2024-03-02T11:02:00;5.17;;;4.67;;
30998;SDS011;20549;50.042;8.968;2024-03-02T11:04:27;5.20;;;4.70;;
30998;SDS011;20549;50.042;8.968;2024-03-02T11:07:11;4.78;;;4.37;;
30998;SDS011;20549;50.042;8.968;2024-03-02T11:09:22;4.85;;;4.28;;
30998;SDS011;20549;50.042;8.968;2024-03-02T11:11:54;5.00;;;4.60;;
30998;SDS011;20549;50.042;8.968;2024-03-02T11:14:18;5.10;;;4.60;;
30998;SDS011;20549;50.042;8.968;2024-03-02T11:16:45;5.05;;;4.60;;
30998;SDS011;20549;50.042;8.968;2024-03-02T11:19:13;5.70;;;4.42;;
30998;SDS011;20549;50.042;8.968;2024-03-02T11:21:38;4.72;;;4.33;;
30998;SDS011;20549;50.042;8.968;2024-03-02T11:26:49;4.22;;;3.67;;
30998;SDS011;20549;50.042;8.968;2024-03-02T11:32:12;5.15;;;3.60;;
30998;SDS011;20549;50.042;8.968;2024-03-02T11:34:38;3.60;;;3.30;;
30998;SDS011;20549;50.042;8.968;2024-03-02T11:37:05;3.83;;;3.45;;
30998;SDS011;20549;50.042;8.968;2024-03-02T11:39:32;4.22;;;3.50;;
30998;SDS011;20549;50.042;8.968;2024-03-02T11:41:58;5.03;;;3.87;;
30998;SDS011;20549;50.042;8.968;2024-03-02T11:44:28;4.42;;;3.67;;
30998;SDS011;20549;50.042;8.968;2024-03-02T11:46:52;3.33;;;3.02;;
30998;SDS011;20549;50.042;8.968;2024-03-02T11:49:46;3.80;;;3.37;;
30998;SDS011;20549;50.042;8.968;2024-03-02T11:52:13;3.37;;;3.08;;
30998;SDS011;20549;50.042;8.968;2024-03-02T11:54:39;4.67;;;3.27;;
30998;SDS011;20549;50.042;8.968;2024-03-02T11:57:06;3.37;;;3.10;;
30998;SDS011;20549;50.042;8.968;2024-03-02T11:59:32;3.42;;;3.12;;
30998;SDS011;20549;50.042;8.968;2024-03-02T12:01:59;3.95;;;3.55;;
30998;SDS011;20549;50.042;8.968;2024-03-02T12:04:25;3.37;;;3.08;;
30998;SDS011;20549;50.042;8.968;2024-03-02T12:06:55;3.30;;;3.00;;
30998;SDS011;20549;50.042;8.968;2024-03-02T12:09:22;3.20;;;2.85;;
30998;SDS011;20549;50.042;8.968;2024-03-02T12:11:48;3.30;;;3.00;;
30998;SDS011;20549;50.042;8.968;2024-03-02T12:14:14;3.05;;;2.77;;
30998;SDS011;20549;50.042;8.968;2024-03-02T12:16:44;3.20;;;2.90;;
30998;SDS011;20549;50.042;8.968;2024-03-02T12:19:11;3.27;;;2.90;;
30998;SDS011;20549;50.042;8.968;2024-03-02T12:21:37;3.05;;;2.75;;
30998;SDS011;20549;50.042;8.968;2024-03-02T12:24:04;2.90;;;2.70;;
30998;SDS011;20549;50.042;8.968;2024-03-02T12:26:31;3.30;;;2.62;;
30998;SDS011;20549;50.042;8.968;2024-03-02T12:28:57;2.87;;;2.60;;
30998;SDS011;20549;50.042;8.968;2024-03-02T12:31:24;3.25;;;3.00;;
30998;SDS011;20549;50.042;8.968;2024-03-02T12:33:50;2.70;;;2.50;;
30998;SDS011;20549;50.042;8.968;2024-03-02T12:36:17;2.33;;;2.12;;
30998;SDS011;20549;50.042;8.968;2024-03-02T12:38:44;2.30;;;2.02;;
30998;SDS011;20549;50.042;8.968;2024-03-02T12:41:10;2.65;;;2.40;;
30998;SDS011;20549;50.042;8.968;2024-03-02T12:43:38;2.45;;;2.25;;
30998;SDS011;20549;50.042;8.968;2024-03-02T12:46:03;3.10;;;2.20;;
30998;SDS011;20549;50.042;8.968;2024-03-02T12:48:30;1.70;;;1.60;;
30998;SDS011;20549;50.042;8.968;2024-03-02T12:50:56;1.52;;;1.42;;
30998;SDS011;20549;50.042;8.968;2024-03-02T12:53:23;1.70;;;1.60;;
30998;SDS011;20549;50.042;8.968;2024-03-02T12:55:50;1.47;;;1.37;;
30998;SDS011;20549;50.042;8.968;2024-03-02T12:58:17;1.77;;;1.42;;
30998;SDS011;20549;50.042;8.968;2024-03-02T13:00:43;1.45;;;1.35;;
30998;SDS011;20549;50.042;8.968;2024-03-02T13:03:09;1.40;;;1.30;;
30998;SDS011;20549;50.042;8.968;2024-03-02T13:05:36;1.47;;;1.37;;
30998;SDS011;20549;50.042;8.968;2024-03-02T13:08:03;1.75;;;1.35;;
30998;SDS011;20549;50.042;8.968;2024-03-02T13:10:29;1.35;;;1.30;;
30998;SDS011;20549;50.042;8.968;2024-03-02T13:12:56;1.92;;;1.70;;
30998;SDS011;20549;50.042;8.968;2024-03-02T13:15:22;1.57;;;1.45;;
30998;SDS011;20549;50.042;8.968;2024-03-02T13:17:49;1.35;;;1.25;;
30998;SDS011;20549;50.042;8.968;2024-03-02T13:20:15;1.82;;;1.50;;
30998;SDS011;20549;50.042;8.968;2024-03-02T13:22:42;1.45;;;1.35;;
30998;SDS011;20549;50.042;8.968;2024-03-02T13:25:09;3.30;;;1.47;;
30998;SDS011;20549;50.042;8.968;2024-03-02T13:27:35;1.50;;;1.40;;
30998;SDS011;20549;50.042;8.968;2024-03-02T13:30:03;2.00;;;1.90;;
30998;SDS011;20549;50.042;8.968;2024-03-02T13:32:28;1.50;;;1.40;;
30998;SDS011;20549;50.042;8.968;2024-03-02T13:34:55;1.60;;;1.50;;
30998;SDS011;20549;50.042;8.968;2024-03-02T13:37:22;2.00;;;1.90;;
30998;SDS011;20549;50.042;8.968;2024-03-02T13:39:48;1.90;;;1.37;;
30998;SDS011;20549;50.042;8.968;2024-03-02T13:42:15;1.95;;;1.80;;
30998;SDS011;20549;50.042;8.968;2024-03-02T13:44:44;1.70;;;1.60;;
30998;SDS011;20549;50.042;8.968;2024-03-02T13:47:13;2.70;;;1.57;;
30998;SDS011;20549;50.042;8.968;2024-03-02T13:49:40;2.92;;;1.80;;
30998;SDS011;20549;50.042;8.968;2024-03-02T13:52:06;1.07;;;1.07;;
30998;SDS011;20549;50.042;8.968;2024-03-02T13:54:43;0.95;;;0.95;;
30998;SDS011;20549;50.042;8.968;2024-03-02T13:57:06;0.80;;;0.80;;
30998;SDS011;20549;50.042;8.968;2024-03-02T13:59:32;1.07;;;1.02;;
30998;SDS011;20549;50.042;8.968;2024-03-02T14:01:58;0.88;;;0.88;;
30998;SDS011;20549;50.042;8.968;2024-03-02T14:04:25;0.80;;;0.80;;
30998;SDS011;20549;50.042;8.968;2024-03-02T14:06:52;1.20;;;1.10;;
30998;SDS011;20549;50.042;8.968;2024-03-02T14:09:18;1.35;;;1.17;;
30998;SDS011;20549;50.042;8.968;2024-03-02T14:11:45;1.67;;;1.40;;
30998;SDS011;20549;50.042;8.968;2024-03-02T14:14:11;0.95;;;0.93;;
30998;SDS011;20549;50.042;8.968;2024-03-02T14:16:38;1.07;;;1.07;;
30998;SDS011;20549;50.042;8.968;2024-03-02T14:19:04;1.60;;;1.50;;
30998;SDS011;20549;50.042;8.968;2024-03-02T14:21:31;1.60;;;1.50;;
30998;SDS011;20549;50.042;8.968;2024-03-02T14:23:58;1.15;;;1.05;;
30998;SDS011;20549;50.042;8.968;2024-03-02T14:26:24;1.20;;;1.10;;
30998;SDS011;20549;50.042;8.968;2024-03-02T14:28:51;1.00;;;1.00;;
30998;SDS011;20549;50.042;8.968;2024-03-02T14:31:17;1.17;;;1.07;;
30998;SDS011;20549;50.042;8.968;2024-03-02T14:33:44;1.30;;;1.20;;
30998;SDS011;20549;50.042;8.968;2024-03-02T14:36:11;1.25;;;1.15;;
30998;SDS011;20549;50.042;8.968;2024-03-02T14:38:37;1.00;;;1.00;;
30998;SDS011;20549;50.042;8.968;2024-03-02T14:41:04;1.00;;;1.00;;